createdAt,value
2019-03-17T00:00:12.580Z,980.17
2019-03-17T00:01:13.640Z,980.16
2019-03-17T00:02:13.095Z,980.21
2019-03-17T00:03:13.140Z,980.19
2019-03-17T00:04:13.338Z,980.20
2019-03-17T00:05:13.515Z,980.15
2019-03-17T00:06:13.607Z,980.17
2019-03-17T00:07:13.805Z,980.14
2019-03-17T00:08:13.760Z,980.19
2019-03-17T00:09:14.001Z,980.11
2019-03-17T00:10:14.232Z,980.16
2019-03-17T00:11:14.467Z,980.13
2019-03-17T00:12:14.633Z,980.15
2019-03-17T00:13:17.592Z,980.12
2019-03-17T00:14:14.867Z,980.11
2019-03-17T00:15:15.316Z,980.08
2019-03-17T00:16:15.310Z,980.09
2019-03-17T00:17:15.463Z,980.09
2019-03-17T00:18:21.152Z,980.04
2019-03-17T00:19:16.424Z,980.04
2019-03-17T00:20:16.041Z,980.01
2019-03-17T00:21:18.693Z,980.01
2019-03-17T00:22:16.239Z,979.98
2019-03-17T00:23:16.457Z,979.97
2019-03-17T00:24:16.584Z,979.96
2019-03-17T00:25:16.853Z,979.97
2019-03-17T00:26:16.874Z,979.98
2019-03-17T00:27:17.067Z,979.92
2019-03-17T00:28:17.314Z,979.90
2019-03-17T00:29:17.458Z,979.88
2019-03-17T00:30:17.729Z,979.85
2019-03-17T00:31:23.669Z,979.89
2019-03-17T00:32:18.082Z,979.91
2019-03-17T00:33:18.158Z,979.88
2019-03-17T00:34:18.997Z,979.90
2019-03-17T00:35:18.502Z,979.87
2019-03-17T00:36:18.517Z,979.88
2019-03-17T00:37:18.656Z,979.89
2019-03-17T00:38:18.985Z,979.90
2019-03-17T00:39:19.068Z,979.86
2019-03-17T00:40:19.237Z,979.83
2019-03-17T00:41:19.448Z,979.86
2019-03-17T00:42:19.590Z,979.82
2019-03-17T00:43:19.747Z,979.81
2019-03-17T00:44:19.920Z,979.82
2019-03-17T00:45:19.966Z,979.76
2019-03-17T00:46:20.202Z,979.76
2019-03-17T00:47:20.469Z,979.79
2019-03-17T00:48:20.622Z,979.76
2019-03-17T00:49:20.792Z,979.77
2019-03-17T00:50:20.811Z,979.76
2019-03-17T00:51:21.124Z,979.74
2019-03-17T00:52:21.361Z,979.73
2019-03-17T00:53:21.518Z,979.68
2019-03-17T00:54:21.568Z,979.67
2019-03-17T00:55:21.459Z,979.64
2019-03-17T00:56:21.819Z,979.59
2019-03-17T00:57:21.994Z,979.56
2019-03-17T00:58:22.184Z,979.54
2019-03-17T00:59:22.334Z,979.49
2019-03-17T01:00:22.537Z,979.45
2019-03-17T01:01:22.669Z,979.46
2019-03-17T01:02:22.845Z,979.43
2019-03-17T01:03:22.988Z,979.39
2019-03-17T01:04:23.031Z,979.44
2019-03-17T01:05:23.129Z,979.40
2019-03-17T01:06:23.148Z,979.37
2019-03-17T01:07:23.326Z,979.37
2019-03-17T01:08:23.514Z,979.33
2019-03-17T01:09:28.134Z,979.31
2019-03-17T01:10:25.680Z,979.27
2019-03-17T01:11:26.314Z,979.28
2019-03-17T01:12:26.247Z,979.25
2019-03-17T01:13:28.798Z,979.23
2019-03-17T01:14:24.929Z,979.20
2019-03-17T01:15:24.855Z,979.22
2019-03-17T01:16:25.189Z,979.21
2019-03-17T01:17:25.281Z,979.18
2019-03-17T01:18:25.061Z,979.18
2019-03-17T01:19:25.162Z,979.15
2019-03-17T01:20:25.353Z,979.11
2019-03-17T01:21:25.447Z,979.10
2019-03-17T01:22:25.733Z,979.03
2019-03-17T01:23:25.815Z,979.07
2019-03-17T01:24:26.060Z,979.05
2019-03-17T01:25:26.031Z,979.08
2019-03-17T01:26:26.251Z,979.06
2019-03-17T01:27:26.403Z,979.04
2019-03-17T01:28:26.422Z,978.93
2019-03-17T01:29:26.680Z,978.94
2019-03-17T01:30:26.940Z,978.93
2019-03-17T01:31:27.068Z,978.92
2019-03-17T01:32:27.180Z,978.94
2019-03-17T01:33:27.280Z,978.90
2019-03-17T01:34:27.607Z,978.86
2019-03-17T01:35:27.708Z,978.87
2019-03-17T01:36:27.835Z,978.82
2019-03-17T01:37:28.036Z,978.77
2019-03-17T01:38:28.131Z,978.80
2019-03-17T01:39:28.656Z,978.77
2019-03-17T01:40:28.615Z,978.75
2019-03-17T01:41:28.491Z,978.71
2019-03-17T01:42:30.431Z,978.72
2019-03-17T01:43:28.678Z,978.70
2019-03-17T01:44:28.820Z,978.69
2019-03-17T01:45:29.122Z,978.68
2019-03-17T01:46:29.197Z,978.63
2019-03-17T01:47:29.381Z,978.60
2019-03-17T01:48:31.110Z,978.57
2019-03-17T01:49:29.712Z,978.56
2019-03-17T01:50:29.907Z,978.55
2019-03-17T01:51:30.113Z,978.55
2019-03-17T01:52:30.454Z,978.48
2019-03-17T01:53:30.479Z,978.49
2019-03-17T01:54:30.827Z,978.52
2019-03-17T01:55:30.792Z,978.47
2019-03-17T01:56:30.997Z,978.45
2019-03-17T01:57:38.847Z,978.42
2019-03-17T01:58:38.894Z,978.43
2019-03-17T01:59:38.854Z,978.44
2019-03-17T02:00:39.292Z,978.41
2019-03-17T02:01:39.838Z,978.42
2019-03-17T02:02:31.993Z,978.41
2019-03-17T02:03:32.658Z,978.38
2019-03-17T02:04:32.270Z,978.39
2019-03-17T02:05:32.520Z,978.35
2019-03-17T02:06:32.419Z,978.34
2019-03-17T02:07:32.557Z,978.37
2019-03-17T02:08:32.891Z,978.30
2019-03-17T02:09:32.902Z,978.32
2019-03-17T02:10:33.121Z,978.32
2019-03-17T02:11:33.162Z,978.30
2019-03-17T02:12:34.148Z,978.28
2019-03-17T02:13:33.505Z,978.29
2019-03-17T02:14:33.589Z,978.23
2019-03-17T02:15:33.765Z,978.21
2019-03-17T02:16:34.224Z,978.23
2019-03-17T02:17:35.040Z,978.24
2019-03-17T02:18:34.470Z,978.21
2019-03-17T02:19:34.484Z,978.21
2019-03-17T02:20:34.682Z,978.18
2019-03-17T02:21:34.866Z,978.18
2019-03-17T02:22:38.643Z,978.12
2019-03-17T02:23:35.102Z,978.11
2019-03-17T02:24:35.189Z,978.08
2019-03-17T02:25:35.421Z,978.10
2019-03-17T02:26:35.468Z,978.12
2019-03-17T02:27:36.650Z,978.13
2019-03-17T02:28:35.851Z,978.04
2019-03-17T02:29:35.970Z,978.09
2019-03-17T02:30:36.227Z,978.07
2019-03-17T02:31:36.307Z,978.08
2019-03-17T02:32:36.564Z,978.04
2019-03-17T02:33:36.631Z,978.04
2019-03-17T02:34:36.869Z,978.00
2019-03-17T02:35:39.603Z,978.01
2019-03-17T02:36:38.658Z,978.01
2019-03-17T02:37:37.355Z,977.99
2019-03-17T02:38:37.460Z,977.94
2019-03-17T02:39:37.589Z,977.97
2019-03-17T02:40:37.698Z,977.97
2019-03-17T02:41:38.045Z,977.97
2019-03-17T02:42:38.089Z,978.01
2019-03-17T02:43:38.294Z,977.94
2019-03-17T02:44:38.615Z,977.90
2019-03-17T02:45:40.225Z,977.92
2019-03-17T02:46:38.762Z,977.90
2019-03-17T02:47:38.848Z,977.91
2019-03-17T02:48:38.993Z,977.90
2019-03-17T02:49:39.211Z,977.88
2019-03-17T02:50:39.357Z,977.85
2019-03-17T02:51:39.588Z,977.79
2019-03-17T02:52:39.654Z,977.82
2019-03-17T02:53:39.822Z,977.84
2019-03-17T02:54:39.939Z,977.84
2019-03-17T02:55:40.154Z,977.81
2019-03-17T02:56:40.287Z,977.83
2019-03-17T02:57:40.411Z,977.78
2019-03-17T02:58:40.523Z,977.75
2019-03-17T02:59:40.728Z,977.77
2019-03-17T03:00:40.928Z,977.70
2019-03-17T03:01:42.304Z,977.69
2019-03-17T03:02:41.391Z,977.70
2019-03-17T03:03:41.421Z,977.71
2019-03-17T03:04:41.686Z,977.70
2019-03-17T03:05:53.919Z,977.72
2019-03-17T03:06:41.915Z,977.62
2019-03-17T03:07:42.151Z,977.64
2019-03-17T03:08:42.303Z,977.62
2019-03-17T03:09:42.338Z,977.62
2019-03-17T03:10:42.596Z,977.55
2019-03-17T03:11:42.681Z,977.56
2019-03-17T03:12:42.917Z,977.60
2019-03-17T03:13:42.994Z,977.59
2019-03-17T03:14:43.391Z,977.52
2019-03-17T03:15:43.393Z,977.53
2019-03-17T03:16:44.748Z,977.57
2019-03-17T03:17:43.585Z,977.59
2019-03-17T03:18:43.830Z,977.53
2019-03-17T03:19:43.901Z,977.55
2019-03-17T03:20:44.128Z,977.54
2019-03-17T03:21:44.162Z,977.56
2019-03-17T03:22:44.339Z,977.49
2019-03-17T03:23:44.558Z,977.52
2019-03-17T03:24:44.723Z,977.54
2019-03-17T03:25:44.945Z,977.53
2019-03-17T03:26:45.079Z,977.50
2019-03-17T03:27:45.162Z,977.54
2019-03-17T03:28:45.282Z,977.46
2019-03-17T03:29:45.367Z,977.49
2019-03-17T03:30:45.557Z,977.49
2019-03-17T03:31:45.738Z,977.47
2019-03-17T03:32:45.828Z,977.46
2019-03-17T03:33:45.882Z,977.49
2019-03-17T03:34:46.241Z,977.47
2019-03-17T03:35:46.286Z,977.46
2019-03-17T03:36:46.435Z,977.45
2019-03-17T03:37:46.622Z,977.47
2019-03-17T03:38:46.861Z,977.50
2019-03-17T03:39:47.053Z,977.45
2019-03-17T03:40:47.147Z,977.46
2019-03-17T03:41:47.274Z,977.44
2019-03-17T03:42:47.436Z,977.43
2019-03-17T03:43:47.638Z,977.40
2019-03-17T03:44:47.876Z,977.36
2019-03-17T03:45:49.507Z,977.33
2019-03-17T03:46:48.741Z,977.34
2019-03-17T03:47:48.320Z,977.28
2019-03-17T03:48:48.972Z,977.33
2019-03-17T03:49:48.575Z,977.28
2019-03-17T03:50:48.772Z,977.31
2019-03-17T03:51:48.997Z,977.34
2019-03-17T03:52:48.997Z,977.32
2019-03-17T03:53:50.001Z,977.36
2019-03-17T03:54:49.395Z,977.37
2019-03-17T03:55:49.402Z,977.40
2019-03-17T03:56:49.703Z,977.40
2019-03-17T03:57:49.816Z,977.36
2019-03-17T03:58:49.928Z,977.41
2019-03-17T03:59:50.172Z,977.37
2019-03-17T04:00:50.390Z,977.33
2019-03-17T04:01:50.448Z,977.31
2019-03-17T04:02:50.651Z,977.31
2019-03-17T04:03:50.739Z,977.30
2019-03-17T04:04:50.964Z,977.24
2019-03-17T04:05:51.097Z,977.22
2019-03-17T04:06:51.319Z,977.26
2019-03-17T04:07:51.539Z,977.26
2019-03-17T04:08:51.639Z,977.21
2019-03-17T04:09:51.818Z,977.18
2019-03-17T04:10:52.027Z,977.21
2019-03-17T04:11:54.160Z,977.19
2019-03-17T04:12:52.370Z,977.18
2019-03-17T04:13:52.567Z,977.19
2019-03-17T04:14:52.695Z,977.19
2019-03-17T04:15:52.898Z,977.18
2019-03-17T04:16:53.121Z,977.16
2019-03-17T04:17:53.166Z,977.16
2019-03-17T04:18:53.342Z,977.14
2019-03-17T04:19:53.526Z,977.26
2019-03-17T04:20:53.663Z,977.09
2019-03-17T04:21:53.898Z,977.12
2019-03-17T04:22:54.109Z,977.16
2019-03-17T04:23:54.191Z,977.11
2019-03-17T04:24:54.458Z,977.10
2019-03-17T04:25:54.649Z,977.10
2019-03-17T04:26:54.794Z,977.02
2019-03-17T04:27:54.979Z,977.05
2019-03-17T04:28:55.142Z,977.04
2019-03-17T04:29:55.369Z,977.03
2019-03-17T04:30:55.604Z,977.12
2019-03-17T04:31:55.685Z,977.07
2019-03-17T04:32:55.784Z,977.07
2019-03-17T04:33:55.988Z,977.05
2019-03-17T04:34:56.154Z,977.05
2019-03-17T04:35:56.316Z,977.03
2019-03-17T04:36:56.571Z,977.03
2019-03-17T04:37:56.703Z,976.97
2019-03-17T04:38:56.847Z,976.95
2019-03-17T04:39:57.102Z,977.06
2019-03-17T04:40:57.307Z,977.07
2019-03-17T04:41:57.416Z,977.05
2019-03-17T04:42:58.294Z,977.01
2019-03-17T04:43:57.805Z,977.01
2019-03-17T04:44:57.896Z,977.08
2019-03-17T04:45:58.115Z,977.02
2019-03-17T04:46:58.538Z,977.03
2019-03-17T04:47:58.667Z,977.04
2019-03-17T04:48:58.946Z,976.97
2019-03-17T04:49:58.809Z,976.92
2019-03-17T04:50:58.950Z,976.94
2019-03-17T04:51:59.139Z,976.98
2019-03-17T04:52:59.248Z,976.94
2019-03-17T04:53:59.488Z,976.92
2019-03-17T04:54:59.634Z,976.91
2019-03-17T04:55:59.646Z,976.84
2019-03-17T04:56:59.936Z,976.85
2019-03-17T04:58:01.664Z,976.90
2019-03-17T04:59:00.194Z,976.87
2019-03-17T05:00:00.473Z,976.92
2019-03-17T05:01:00.568Z,976.92
2019-03-17T05:02:01.417Z,976.95
2019-03-17T05:03:00.843Z,976.97
2019-03-17T05:04:00.960Z,976.96
2019-03-17T05:05:01.135Z,976.96
2019-03-17T05:06:05.703Z,976.96
2019-03-17T05:07:04.304Z,977.00
2019-03-17T05:08:03.969Z,976.93
2019-03-17T05:09:03.216Z,976.94
2019-03-17T05:10:02.005Z,976.93
2019-03-17T05:11:04.158Z,976.92
2019-03-17T05:12:02.297Z,976.92
2019-03-17T05:13:02.483Z,976.96
2019-03-17T05:14:02.520Z,976.93
2019-03-17T05:15:02.947Z,976.95
2019-03-17T05:16:03.032Z,976.91
2019-03-17T05:17:03.253Z,976.94
2019-03-17T05:18:03.492Z,976.95
2019-03-17T05:19:03.598Z,976.95
2019-03-17T05:20:03.672Z,976.98
2019-03-17T05:21:03.858Z,977.03
2019-03-17T05:22:04.087Z,977.01
2019-03-17T05:23:05.867Z,977.00
2019-03-17T05:24:04.370Z,976.94
2019-03-17T05:25:04.602Z,976.91
2019-03-17T05:26:04.802Z,976.95
2019-03-17T05:27:04.980Z,976.89
2019-03-17T05:28:05.127Z,976.95
2019-03-17T05:29:05.258Z,976.94
2019-03-17T05:30:05.414Z,976.95
2019-03-17T05:31:05.601Z,977.02
2019-03-17T05:32:05.771Z,976.94
2019-03-17T05:33:05.847Z,976.96
2019-03-17T05:34:05.911Z,976.95
2019-03-17T05:35:06.104Z,976.95
2019-03-17T05:36:08.923Z,976.94
2019-03-17T05:37:07.037Z,976.92
2019-03-17T05:38:06.597Z,976.91
2019-03-17T05:39:06.664Z,976.92
2019-03-17T05:40:06.791Z,976.93
2019-03-17T05:41:06.990Z,976.92
2019-03-17T05:42:07.086Z,976.92
2019-03-17T05:43:07.329Z,976.91
2019-03-17T05:44:09.206Z,976.93
2019-03-17T05:45:07.419Z,976.95
2019-03-17T05:46:07.765Z,976.87
2019-03-17T05:47:07.903Z,976.91
2019-03-17T05:48:15.383Z,976.91
2019-03-17T05:49:08.480Z,976.88
2019-03-17T05:50:15.933Z,976.83
2019-03-17T05:51:16.195Z,976.82
2019-03-17T05:52:08.618Z,976.83
2019-03-17T05:53:08.949Z,976.85
2019-03-17T05:54:09.681Z,976.83
2019-03-17T05:55:09.199Z,976.86
2019-03-17T05:56:09.448Z,976.84
2019-03-17T05:57:09.645Z,976.85
2019-03-17T05:58:09.833Z,976.81
2019-03-17T05:59:09.993Z,976.72
2019-03-17T06:00:10.125Z,976.73
2019-03-17T06:01:10.474Z,976.78
2019-03-17T06:02:10.460Z,976.78
2019-03-17T06:03:10.649Z,976.76
2019-03-17T06:04:10.837Z,976.74
2019-03-17T06:05:11.057Z,976.74
2019-03-17T06:06:11.269Z,976.75
2019-03-17T06:07:18.711Z,976.77
2019-03-17T06:08:11.448Z,976.79
2019-03-17T06:09:11.734Z,976.79
2019-03-17T06:10:11.786Z,976.77
2019-03-17T06:11:12.044Z,976.77
2019-03-17T06:12:12.091Z,976.75
2019-03-17T06:13:12.282Z,976.80
2019-03-17T06:14:12.534Z,976.78
2019-03-17T06:15:12.739Z,976.84
2019-03-17T06:16:12.921Z,976.83
2019-03-17T06:17:13.096Z,976.86
2019-03-17T06:18:13.210Z,976.91
2019-03-17T06:19:13.463Z,976.90
2019-03-17T06:20:13.682Z,976.94
2019-03-17T06:21:13.787Z,976.89
2019-03-17T06:22:13.940Z,976.90
2019-03-17T06:23:14.304Z,976.91
2019-03-17T06:24:14.339Z,976.92
2019-03-17T06:25:14.500Z,976.92
2019-03-17T06:26:14.416Z,976.92
2019-03-17T06:27:14.991Z,976.89
2019-03-17T06:28:14.875Z,976.91
2019-03-17T06:29:16.237Z,976.88
2019-03-17T06:30:15.187Z,976.87
2019-03-17T06:31:15.270Z,976.85
2019-03-17T06:32:15.397Z,976.84
2019-03-17T06:33:17.821Z,976.80
2019-03-17T06:34:15.875Z,976.84
2019-03-17T06:35:16.002Z,976.89
2019-03-17T06:36:16.343Z,976.89
2019-03-17T06:37:16.388Z,976.89
2019-03-17T06:38:16.501Z,976.90
2019-03-17T06:39:16.693Z,976.89
2019-03-17T06:40:18.109Z,976.86
2019-03-17T06:41:17.067Z,976.94
2019-03-17T06:42:19.088Z,976.93
2019-03-17T06:43:17.284Z,976.96
2019-03-17T06:44:17.982Z,976.97
2019-03-17T06:45:17.871Z,977.02
2019-03-17T06:46:17.900Z,977.03
2019-03-17T06:47:18.029Z,976.98
2019-03-17T06:48:18.171Z,976.95
2019-03-17T06:49:18.359Z,976.95
2019-03-17T06:50:18.549Z,976.93
2019-03-17T06:51:18.749Z,976.95
2019-03-17T06:52:19.060Z,976.85
2019-03-17T06:53:19.213Z,976.88
2019-03-17T06:54:19.176Z,976.79
2019-03-17T06:55:19.357Z,976.75
2019-03-17T06:56:19.586Z,976.77
2019-03-17T06:57:19.805Z,976.77
2019-03-17T06:58:19.860Z,976.72
2019-03-17T06:59:20.015Z,976.73
2019-03-17T07:00:20.174Z,976.70
2019-03-17T07:01:20.389Z,976.78
2019-03-17T07:02:22.590Z,976.71
2019-03-17T07:03:23.080Z,976.77
2019-03-17T07:04:21.627Z,976.76
2019-03-17T07:05:21.007Z,976.72
2019-03-17T07:06:21.148Z,976.79
2019-03-17T07:07:21.345Z,976.81
2019-03-17T07:08:21.370Z,976.75
2019-03-17T07:09:21.936Z,976.64
2019-03-17T07:10:21.853Z,976.64
2019-03-17T07:11:22.012Z,976.62
2019-03-17T07:12:22.152Z,976.74
2019-03-17T07:13:22.288Z,976.75
2019-03-17T07:14:25.587Z,976.81
2019-03-17T07:15:26.938Z,976.90
2019-03-17T07:16:26.550Z,976.79
2019-03-17T07:17:27.863Z,976.85
2019-03-17T07:18:26.189Z,976.88
2019-03-17T07:19:25.377Z,976.84
2019-03-17T07:20:24.289Z,976.80
2019-03-17T07:21:24.075Z,976.78
2019-03-17T07:22:23.644Z,976.87
2019-03-17T07:23:25.261Z,976.90
2019-03-17T07:24:23.779Z,976.91
2019-03-17T07:25:23.966Z,976.86
2019-03-17T07:26:24.188Z,976.92
2019-03-17T07:27:24.383Z,976.97
2019-03-17T07:28:24.477Z,976.88
2019-03-17T07:29:24.656Z,976.85
2019-03-17T07:30:24.861Z,976.91
2019-03-17T07:31:25.067Z,976.85
2019-03-17T07:32:26.763Z,976.90
2019-03-17T07:33:27.666Z,976.85
2019-03-17T07:34:27.664Z,976.92
2019-03-17T07:35:26.139Z,976.87
2019-03-17T07:36:28.518Z,976.94
2019-03-17T07:37:26.574Z,976.86
2019-03-17T07:38:27.380Z,976.94
2019-03-17T07:39:26.299Z,976.88
2019-03-17T07:40:26.392Z,976.94
2019-03-17T07:41:26.685Z,976.94
2019-03-17T07:42:26.891Z,976.89
2019-03-17T07:43:26.878Z,976.89
2019-03-17T07:44:27.150Z,977.06
2019-03-17T07:45:27.266Z,976.92
2019-03-17T07:46:27.441Z,976.93
2019-03-17T07:47:27.607Z,976.88
2019-03-17T07:48:27.798Z,976.85
2019-03-17T07:49:28.048Z,976.87
2019-03-17T07:50:28.358Z,976.91
2019-03-17T07:51:28.347Z,976.85
2019-03-17T07:52:28.667Z,976.84
2019-03-17T07:53:28.616Z,976.89
2019-03-17T07:54:28.814Z,976.89
2019-03-17T07:55:29.008Z,976.88
2019-03-17T07:56:29.204Z,976.83
2019-03-17T07:57:31.231Z,976.81
2019-03-17T07:58:30.335Z,976.82
2019-03-17T07:59:29.748Z,976.79
2019-03-17T08:00:32.039Z,976.91
2019-03-17T08:01:30.039Z,976.84
2019-03-17T08:02:30.259Z,976.78
2019-03-17T08:03:30.313Z,976.90
2019-03-17T08:04:41.883Z,976.84
2019-03-17T08:05:30.622Z,976.77
2019-03-17T08:06:30.735Z,976.94
2019-03-17T08:07:32.230Z,976.79
2019-03-17T08:08:31.291Z,976.80
2019-03-17T08:09:31.220Z,976.76
2019-03-17T08:10:32.226Z,976.94
2019-03-17T08:11:31.554Z,976.98
2019-03-17T08:12:31.773Z,976.90
2019-03-17T08:13:32.008Z,977.00
2019-03-17T08:14:32.328Z,976.94
2019-03-17T08:15:32.323Z,977.02
2019-03-17T08:16:32.448Z,977.02
2019-03-17T08:17:33.576Z,977.02
2019-03-17T08:18:32.638Z,977.05
2019-03-17T08:19:32.871Z,977.09
2019-03-17T08:20:32.899Z,977.08
2019-03-17T08:21:33.396Z,977.07
2019-03-17T08:22:33.228Z,977.12
2019-03-17T08:23:33.459Z,977.17
2019-03-17T08:24:33.633Z,977.19
2019-03-17T08:25:33.812Z,977.22
2019-03-17T08:26:34.021Z,977.07
2019-03-17T08:27:34.147Z,977.11
2019-03-17T08:28:34.392Z,977.13
2019-03-17T08:29:34.559Z,977.21
2019-03-17T08:30:34.566Z,977.19
2019-03-17T08:31:35.112Z,977.22
2019-03-17T08:32:34.831Z,977.36
2019-03-17T08:33:35.045Z,977.27
2019-03-17T08:34:35.217Z,977.11
2019-03-17T08:35:35.436Z,977.29
2019-03-17T08:36:35.577Z,977.23
2019-03-17T08:37:35.668Z,977.18
2019-03-17T08:38:36.923Z,977.26
2019-03-17T08:39:36.001Z,977.31
2019-03-17T08:40:36.202Z,977.25
2019-03-17T08:41:37.662Z,977.25
2019-03-17T08:42:36.556Z,977.28
2019-03-17T08:43:37.032Z,977.28
2019-03-17T08:44:36.958Z,977.35
2019-03-17T08:45:37.105Z,977.33
2019-03-17T08:46:37.250Z,977.37
2019-03-17T08:47:37.652Z,977.37
2019-03-17T08:48:38.539Z,977.37
2019-03-17T08:49:37.999Z,977.34
2019-03-17T08:50:37.985Z,977.47
2019-03-17T08:51:38.268Z,977.48
2019-03-17T08:52:38.391Z,977.59
2019-03-17T08:53:38.573Z,977.41
2019-03-17T08:54:39.364Z,977.49
2019-03-17T08:55:38.858Z,977.69
2019-03-17T08:56:39.033Z,977.65
2019-03-17T08:57:39.309Z,977.77
2019-03-17T08:58:39.346Z,977.63
2019-03-17T08:59:39.842Z,977.64
2019-03-17T09:00:39.752Z,977.78
2019-03-17T09:01:39.925Z,977.72
2019-03-17T09:02:40.060Z,977.73
2019-03-17T09:03:40.138Z,977.76
2019-03-17T09:04:40.282Z,977.79
2019-03-17T09:05:40.494Z,977.67
2019-03-17T09:06:40.677Z,977.77
2019-03-17T09:07:40.772Z,977.78
2019-03-17T09:08:40.976Z,977.83
2019-03-17T09:09:41.217Z,977.83
2019-03-17T09:10:41.407Z,977.86
2019-03-17T09:11:41.946Z,977.89
2019-03-17T09:12:41.838Z,977.86
2019-03-17T09:13:41.901Z,977.89
2019-03-17T09:14:43.846Z,977.82
2019-03-17T09:15:42.224Z,977.88
2019-03-17T09:16:42.366Z,977.94
2019-03-17T09:17:42.593Z,977.88
2019-03-17T09:18:42.759Z,977.78
2019-03-17T09:19:42.912Z,977.86
2019-03-17T09:20:43.061Z,977.75
2019-03-17T09:21:43.274Z,977.79
2019-03-17T09:22:43.465Z,977.67
2019-03-17T09:23:43.649Z,977.73
2019-03-17T09:24:43.842Z,977.75
2019-03-17T09:25:44.016Z,977.69
2019-03-17T09:26:44.240Z,977.69
2019-03-17T09:27:44.298Z,977.83
2019-03-17T09:28:44.523Z,977.67
2019-03-17T09:29:44.703Z,977.82
2019-03-17T09:30:44.943Z,977.92
2019-03-17T09:31:46.513Z,977.94
2019-03-17T09:32:45.341Z,977.82
2019-03-17T09:33:45.283Z,977.71
2019-03-17T09:34:45.441Z,977.75
2019-03-17T09:35:45.599Z,977.76
2019-03-17T09:36:45.899Z,977.82
2019-03-17T09:37:45.982Z,977.90
2019-03-17T09:38:58.913Z,977.87
2019-03-17T09:39:55.386Z,977.85
2019-03-17T09:40:56.363Z,977.88
2019-03-17T09:41:46.573Z,977.79
2019-03-17T09:42:48.064Z,977.74
2019-03-17T09:43:46.781Z,977.74
2019-03-17T09:44:48.076Z,977.77
2019-03-17T09:45:47.195Z,977.85
2019-03-17T09:46:49.086Z,977.84
2019-03-17T09:47:47.517Z,977.94
2019-03-17T09:48:47.623Z,977.83
2019-03-17T09:49:48.278Z,977.82
2019-03-17T09:50:49.494Z,977.82
2019-03-17T09:51:49.832Z,977.83
2019-03-17T09:52:49.323Z,977.87
2019-03-17T09:53:50.696Z,977.88
2019-03-17T09:54:50.698Z,977.76
2019-03-17T09:55:50.196Z,977.97
2019-03-17T09:56:50.685Z,977.92
2019-03-17T09:57:51.015Z,977.93
2019-03-17T09:58:50.462Z,977.92
2019-03-17T09:59:50.643Z,977.95
2019-03-17T10:00:51.120Z,977.91
2019-03-17T10:01:49.990Z,977.87
2019-03-17T10:02:52.860Z,977.91
2019-03-17T10:03:51.595Z,977.88
2019-03-17T10:04:51.194Z,977.90
2019-03-17T10:05:50.267Z,977.92
2019-03-17T10:06:50.328Z,977.98
2019-03-17T10:07:50.443Z,977.99
2019-03-17T10:08:59.547Z,977.86
2019-03-17T10:09:50.781Z,977.94
2019-03-17T10:10:51.393Z,977.90
2019-03-17T10:11:51.489Z,977.84
2019-03-17T10:12:51.221Z,977.90
2019-03-17T10:13:51.547Z,977.87
2019-03-17T10:14:51.462Z,977.93
2019-03-17T10:15:51.612Z,977.82
2019-03-17T10:16:51.806Z,977.93
2019-03-17T10:17:51.945Z,977.94
2019-03-17T10:18:52.049Z,977.85
2019-03-17T10:19:52.140Z,977.95
2019-03-17T10:20:52.384Z,977.89
2019-03-17T10:21:52.541Z,977.93
2019-03-17T10:22:52.881Z,977.92
2019-03-17T10:23:53.028Z,977.89
2019-03-17T10:24:53.672Z,977.92
2019-03-17T10:25:53.236Z,978.00
2019-03-17T10:26:53.509Z,978.00
2019-03-17T10:27:53.546Z,977.94
2019-03-17T10:28:53.722Z,977.96
2019-03-17T10:29:53.866Z,977.92
2019-03-17T10:30:54.244Z,977.93
2019-03-17T10:31:54.947Z,977.96
2019-03-17T10:32:54.312Z,977.98
2019-03-17T10:33:56.360Z,978.07
2019-03-17T10:34:54.837Z,978.07
2019-03-17T10:35:54.746Z,978.04
2019-03-17T10:36:55.284Z,978.13
2019-03-17T10:37:55.402Z,978.10
2019-03-17T10:38:56.251Z,978.07
2019-03-17T10:39:55.319Z,978.02
2019-03-17T10:40:55.552Z,978.10
2019-03-17T10:41:55.634Z,978.10
2019-03-17T10:42:55.948Z,978.13
2019-03-17T10:43:55.996Z,978.08
2019-03-17T10:44:56.322Z,978.04
2019-03-17T10:45:56.490Z,978.06
2019-03-17T10:46:56.754Z,978.02
2019-03-17T10:47:56.961Z,978.02
2019-03-17T10:48:57.894Z,977.88
2019-03-17T10:49:57.189Z,977.89
2019-03-17T10:50:57.521Z,977.94
2019-03-17T10:51:57.410Z,977.99
2019-03-17T10:52:57.655Z,977.97
2019-03-17T10:53:57.877Z,977.99
2019-03-17T10:54:58.009Z,977.91
2019-03-17T10:55:58.394Z,977.88
2019-03-17T10:56:58.247Z,977.83
2019-03-17T10:57:58.470Z,977.78
2019-03-17T10:58:58.709Z,977.79
2019-03-17T10:59:59.047Z,977.82
2019-03-17T11:00:59.097Z,977.77
2019-03-17T11:01:59.914Z,977.80
2019-03-17T11:02:59.325Z,977.79
2019-03-17T11:03:59.487Z,977.78
2019-03-17T11:04:59.682Z,977.85
2019-03-17T11:05:59.754Z,977.81
2019-03-17T11:06:59.850Z,977.81
2019-03-17T11:08:01.087Z,977.89
2019-03-17T11:09:02.135Z,977.85
2019-03-17T11:10:01.609Z,977.89
2019-03-17T11:11:01.217Z,977.98
2019-03-17T11:12:02.160Z,977.97
2019-03-17T11:13:01.750Z,978.01
2019-03-17T11:14:02.953Z,978.02
2019-03-17T11:15:01.895Z,978.04
2019-03-17T11:16:02.392Z,978.01
2019-03-17T11:17:02.816Z,977.97
2019-03-17T11:18:03.632Z,978.03
2019-03-17T11:19:02.034Z,977.98
2019-03-17T11:20:01.893Z,977.95
2019-03-17T11:21:02.839Z,978.00
2019-03-17T11:22:02.208Z,978.02
2019-03-17T11:23:02.309Z,978.15
2019-03-17T11:24:02.423Z,978.12
2019-03-17T11:25:02.549Z,978.52
2019-03-17T11:26:02.708Z,978.59
2019-03-17T11:27:02.870Z,978.66
2019-03-17T11:28:02.902Z,978.67
2019-03-17T11:29:03.149Z,978.66
2019-03-17T11:30:03.249Z,978.78
2019-03-17T11:31:03.961Z,978.76
2019-03-17T11:32:06.519Z,978.85
2019-03-17T11:33:03.786Z,978.85
2019-03-17T11:34:05.160Z,978.96
2019-03-17T11:35:04.035Z,978.98
2019-03-17T11:36:07.452Z,978.94
2019-03-17T11:37:05.005Z,979.05
2019-03-17T11:38:05.356Z,979.09
2019-03-17T11:39:04.739Z,979.18
2019-03-17T11:40:04.984Z,979.19
2019-03-17T11:41:04.957Z,979.12
2019-03-17T11:42:05.109Z,979.13
2019-03-17T11:43:05.251Z,979.11
2019-03-17T11:44:05.841Z,979.15
2019-03-17T11:45:05.634Z,979.13
2019-03-17T11:46:05.824Z,979.15
2019-03-17T11:47:06.002Z,979.07
2019-03-17T11:48:06.116Z,979.13
2019-03-17T11:49:06.265Z,979.12
2019-03-17T11:50:06.435Z,979.10
2019-03-17T11:51:06.522Z,979.20
2019-03-17T11:52:06.650Z,979.17
2019-03-17T11:53:07.416Z,979.08
2019-03-17T11:54:06.931Z,979.11
2019-03-17T11:55:07.056Z,979.07
2019-03-17T11:56:07.137Z,979.05
2019-03-17T11:57:08.423Z,979.18
2019-03-17T11:58:07.535Z,979.09
2019-03-17T11:59:07.749Z,979.20
2019-03-17T12:00:07.955Z,979.25
2019-03-17T12:01:07.964Z,979.22
2019-03-17T12:02:08.970Z,979.26
2019-03-17T12:03:08.871Z,979.26
2019-03-17T12:04:08.476Z,979.36
2019-03-17T12:05:08.515Z,979.37
2019-03-17T12:06:09.653Z,979.37
2019-03-17T12:07:09.593Z,979.40
2019-03-17T12:08:09.057Z,979.40
2019-03-17T12:09:09.160Z,979.36
2019-03-17T12:10:09.319Z,979.36
2019-03-17T12:11:09.329Z,979.34
2019-03-17T12:12:10.040Z,979.32
2019-03-17T12:13:10.352Z,979.33
2019-03-17T12:14:10.066Z,979.33
2019-03-17T12:15:10.126Z,979.39
2019-03-17T12:16:11.652Z,979.34
2019-03-17T12:17:10.534Z,979.33
2019-03-17T12:18:10.590Z,979.43
2019-03-17T12:19:10.792Z,979.42
2019-03-17T12:20:10.944Z,979.42
2019-03-17T12:21:11.184Z,979.43
2019-03-17T12:22:11.648Z,979.40
2019-03-17T12:23:12.945Z,979.41
2019-03-17T12:24:11.590Z,979.42
2019-03-17T12:25:11.821Z,979.43
2019-03-17T12:26:11.954Z,979.41
2019-03-17T12:27:12.209Z,979.44
2019-03-17T12:28:12.252Z,979.44
2019-03-17T12:29:12.416Z,979.47
2019-03-17T12:30:13.846Z,979.45